Petersburg, VA (23801)

1:48 PM EDT on August 31, 2015 (GMT -0400)
APRSWXNET | | Change Station
CLOSE
Current Station
Personal Weather Station
Location: Petersburg, VA
Elevation: 104 ft
Nearby Weather Stations

Elev 104 ft 37.25 °N, 77.41 °W | Updated 26 minutes ago

Overcast
Overcast
77 °F
Feels Like 79 °F
N
4
Wind Variable Wind from WSW
Gusts 8.0 mph

Today
High -- | Low -- °F
--% Chance of Precip.
Yesterday
High -- | Low -- °F
Precip. -- in
6:38 AM 7:39 PM
Waning Gibbous, 94% visible
Pressure 30.12 in
Visibility 10.0 miles
Clouds Scattered Clouds 1200 ft
Heat Index 79 °F
Dew Point 70 °F
Humidity 78%
Rainfall in
Snow Depth Not available.
UV 8 out of 12
Pollen 8.90 out of 12
Air Quality Not available.
Flu Activity Not available.
METAR KPTB 311735Z AUTO 17003KT 10SM -RA SCT012 25/24 A3012 RMK AO2 T02500236
Pressure 30.12 in
Visibility 10.0 miles
Clouds Scattered Clouds 1200 ft
Heat Index 79 °F
Dew Point 70 °F
Humidity 78%
Rainfall in
Snow Depth Not available.
UV 8 out of 12
Pollen 8.90 out of 12
Air Quality Not available.
Flu Activity Not available.
METAR KPTB 311735Z AUTO 17003KT 10SM -RA SCT012 25/24 A3012 RMK AO2 T02500236

10-Day Weather Forecast

×

Almanac

Astronomy

Aug. 31, 2015 Rise Set
Actual Time
Civil Twilight
Nautical Twilight
Astronomical Twilight
Moon
Length of Visible Light
Length of Day
Tomorrow will be .
, % of the Moon is Illuminated

Today's Extremes

State Highs State Lows

Community

WunderPhotos

Upload Photos

1,851,328 photos uploaded!

WunderBlogs® & News

Nearby

Air Quality

  Air Quality AQ Index Pollutant
Not available.

Snow Depth

Station Depth Elevation

Earthquake Activity

City Distance Mag. Time & Date
Minimum magnitude displayed is 2.5.

Coastal Water Temperatures

Place Temperature

Stations

Nearby Weather Stations

Station Location Temp. Windchill Dew Point Humidity Wind Precip. Elev Updated Type